createdAt,value
2018-01-24T00:00:31.985Z,17.10
2018-01-24T00:01:36.918Z,17.10
2018-01-24T00:02:41.892Z,17.10
2018-01-24T00:03:46.813Z,17.10
2018-01-24T00:04:52.077Z,17.10
2018-01-24T00:05:56.921Z,17.10
2018-01-24T00:07:01.872Z,17.10
2018-01-24T00:08:07.427Z,17.10
2018-01-24T00:09:12.664Z,17.10
2018-01-24T00:10:17.707Z,17.00
2018-01-24T00:11:22.725Z,17.00
2018-01-24T00:12:27.712Z,17.00
2018-01-24T00:13:32.978Z,17.00
2018-01-24T00:14:38.013Z,17.00
2018-01-24T00:15:43.217Z,17.00
2018-01-24T00:16:48.164Z,17.00
2018-01-24T00:17:53.010Z,17.00
2018-01-24T00:18:57.905Z,17.00
2018-01-24T00:20:02.810Z,17.00
2018-01-24T00:21:07.875Z,17.00
2018-01-24T00:22:12.824Z,17.00
2018-01-24T00:23:17.742Z,17.00
2018-01-24T00:24:22.782Z,17.00
2018-01-24T00:25:27.656Z,17.00
2018-01-24T00:26:32.913Z,17.00
2018-01-24T00:27:37.831Z,17.00
2018-01-24T00:28:42.911Z,17.00
2018-01-24T00:29:47.763Z,17.00
2018-01-24T00:30:52.812Z,17.00
2018-01-24T00:31:57.627Z,17.00
2018-01-24T00:33:02.593Z,17.00
2018-01-24T00:34:08.128Z,17.00
2018-01-24T00:35:13.046Z,17.00
2018-01-24T00:36:18.026Z,17.00
2018-01-24T00:37:22.964Z,17.00
2018-01-24T00:38:27.842Z,17.00
2018-01-24T00:39:32.718Z,17.00
2018-01-24T00:40:37.452Z,17.00
2018-01-24T00:41:42.476Z,17.00
2018-01-24T00:42:47.302Z,17.00
2018-01-24T00:43:52.268Z,17.00
2018-01-24T00:44:57.106Z,17.00
2018-01-24T00:46:02.333Z,17.00
2018-01-24T00:47:07.111Z,17.00
2018-01-24T00:48:12.127Z,17.00
2018-01-24T00:49:16.913Z,17.00
2018-01-24T00:50:21.787Z,17.00
2018-01-24T00:51:26.627Z,16.90
2018-01-24T00:52:31.479Z,16.90
2018-01-24T00:53:36.363Z,16.90
2018-01-24T00:54:41.215Z,17.00
2018-01-24T00:55:46.007Z,16.90
2018-01-24T00:56:50.840Z,16.90
2018-01-24T00:57:55.641Z,16.90
2018-01-24T00:59:00.566Z,16.90
2018-01-24T01:00:05.404Z,16.90
2018-01-24T01:01:10.225Z,17.00
2018-01-24T01:02:15.161Z,16.90
2018-01-24T01:03:20.048Z,17.00
2018-01-24T01:04:25.017Z,16.90
2018-01-24T01:05:30.130Z,17.00
2018-01-24T01:06:34.978Z,16.90
2018-01-24T01:07:40.048Z,17.00
2018-01-24T01:08:44.969Z,16.90
2018-01-24T01:09:49.871Z,16.90
2018-01-24T01:10:54.780Z,16.90
2018-01-24T01:11:59.516Z,16.90
2018-01-24T01:13:04.494Z,16.90
2018-01-24T01:14:09.342Z,16.90
2018-01-24T01:15:14.540Z,16.90
2018-01-24T01:16:19.265Z,16.90
2018-01-24T01:17:24.120Z,16.90
2018-01-24T01:18:28.940Z,16.90
2018-01-24T01:19:33.718Z,16.90
2018-01-24T01:20:38.585Z,16.90
2018-01-24T01:21:43.341Z,16.90
2018-01-24T01:22:48.188Z,16.90
2018-01-24T01:23:53.346Z,16.90
2018-01-24T01:24:58.106Z,16.90
2018-01-24T01:26:03.369Z,16.90
2018-01-24T01:27:08.187Z,16.90
2018-01-24T01:28:12.977Z,16.90
2018-01-24T01:29:17.863Z,16.90
2018-01-24T01:30:22.611Z,16.90
2018-01-24T01:31:27.495Z,16.80
2018-01-24T01:32:32.296Z,16.90
2018-01-24T01:33:37.194Z,16.80
2018-01-24T01:34:41.993Z,16.80
2018-01-24T01:35:46.946Z,16.80
2018-01-24T01:36:51.794Z,16.80
2018-01-24T01:37:56.631Z,16.80
2018-01-24T01:39:01.420Z,16.80
2018-01-24T01:40:06.237Z,16.90
2018-01-24T01:41:10.982Z,16.80
2018-01-24T01:42:16.353Z,16.80
2018-01-24T01:43:21.124Z,16.80
2018-01-24T01:44:26.013Z,16.90
2018-01-24T01:45:30.803Z,16.80
2018-01-24T01:46:35.596Z,16.80
2018-01-24T01:47:40.472Z,16.90
2018-01-24T01:48:45.220Z,16.80
2018-01-24T01:49:50.107Z,16.80
2018-01-24T01:50:55.004Z,16.80
2018-01-24T01:51:59.875Z,16.80
2018-01-24T01:53:04.746Z,16.80
2018-01-24T01:54:09.697Z,16.80
2018-01-24T01:55:14.534Z,16.80
2018-01-24T01:56:19.301Z,16.80
2018-01-24T01:57:24.077Z,16.80
2018-01-24T01:58:29.034Z,16.80
2018-01-24T01:59:33.767Z,16.80
2018-01-24T02:00:39.586Z,16.80
2018-01-24T02:01:44.488Z,16.80
2018-01-24T02:02:49.418Z,16.80
2018-01-24T02:03:54.362Z,16.80
2018-01-24T02:04:59.205Z,16.80
2018-01-24T02:06:04.009Z,16.90
2018-01-24T02:07:08.968Z,16.80
2018-01-24T02:08:13.831Z,16.90
2018-01-24T02:09:18.729Z,16.80
2018-01-24T02:10:23.529Z,16.80
2018-01-24T02:11:28.494Z,16.80
2018-01-24T02:12:33.249Z,16.80
2018-01-24T02:13:38.040Z,16.80
2018-01-24T02:14:42.787Z,16.80
2018-01-24T02:15:47.476Z,16.80
2018-01-24T02:16:52.310Z,16.80
2018-01-24T02:17:57.167Z,16.80
2018-01-24T02:19:03.187Z,16.80
2018-01-24T02:20:08.089Z,16.80
2018-01-24T02:21:12.888Z,16.80
2018-01-24T02:22:17.749Z,16.80
2018-01-24T02:23:22.518Z,16.80
2018-01-24T02:24:27.249Z,16.80
2018-01-24T02:25:32.197Z,16.80
2018-01-24T02:26:36.943Z,16.80
2018-01-24T02:27:41.853Z,16.80
2018-01-24T02:28:46.711Z,16.80
2018-01-24T02:29:51.446Z,16.80
2018-01-24T02:30:56.224Z,16.80
2018-01-24T02:32:01.089Z,16.80
2018-01-24T02:33:05.935Z,16.80
2018-01-24T02:34:10.722Z,16.80
2018-01-24T02:35:15.514Z,16.80
2018-01-24T02:36:20.292Z,16.80
2018-01-24T02:37:26.106Z,16.80
2018-01-24T02:38:31.074Z,16.80
2018-01-24T02:39:35.857Z,16.80
2018-01-24T02:40:40.608Z,16.80
2018-01-24T02:41:45.325Z,16.80
2018-01-24T02:42:50.239Z,16.80
2018-01-24T02:43:55.016Z,16.80
2018-01-24T02:44:59.771Z,16.80
2018-01-24T02:46:04.610Z,16.80
2018-01-24T02:47:09.365Z,16.80
2018-01-24T02:48:14.204Z,16.80
2018-01-24T02:49:19.210Z,16.80
2018-01-24T02:50:24.017Z,16.80
2018-01-24T02:51:28.796Z,16.80
2018-01-24T02:52:33.584Z,16.80
2018-01-24T02:53:38.549Z,16.80
2018-01-24T02:54:43.357Z,16.80
2018-01-24T02:55:49.012Z,16.80
2018-01-24T02:56:54.151Z,16.80
2018-01-24T02:57:59.163Z,16.80
2018-01-24T02:59:04.129Z,16.80
2018-01-24T03:00:09.045Z,16.80
2018-01-24T03:01:13.910Z,16.80
2018-01-24T03:02:18.660Z,16.80
2018-01-24T03:03:23.428Z,16.80
2018-01-24T03:04:28.298Z,16.80
2018-01-24T03:05:33.022Z,16.80
2018-01-24T03:06:37.836Z,16.80
2018-01-24T03:07:42.620Z,16.70
2018-01-24T03:08:47.450Z,16.70
2018-01-24T03:09:52.226Z,16.70
2018-01-24T03:10:56.936Z,16.70
2018-01-24T03:12:01.643Z,16.70
2018-01-24T03:13:06.409Z,16.80
2018-01-24T03:14:11.254Z,16.80
2018-01-24T03:15:16.373Z,16.80
2018-01-24T03:16:21.279Z,16.70
2018-01-24T03:17:25.977Z,16.80
2018-01-24T03:18:30.770Z,16.80
2018-01-24T03:19:35.533Z,16.70
2018-01-24T03:20:40.322Z,16.70
2018-01-24T03:21:45.181Z,16.70
2018-01-24T03:22:49.990Z,16.70
2018-01-24T03:23:54.780Z,16.80
2018-01-24T03:24:59.629Z,16.70
2018-01-24T03:26:04.360Z,16.80
2018-01-24T03:27:09.166Z,16.80
2018-01-24T03:28:13.888Z,16.80
2018-01-24T03:29:18.624Z,16.70
2018-01-24T03:30:23.328Z,16.70
2018-01-24T03:31:28.080Z,16.70
2018-01-24T03:32:33.011Z,16.70
2018-01-24T03:33:37.894Z,16.80
2018-01-24T03:34:42.728Z,16.70
2018-01-24T03:35:47.694Z,16.80
2018-01-24T03:36:52.506Z,16.80
2018-01-24T03:37:57.278Z,16.70
2018-01-24T03:39:02.215Z,16.70
2018-01-24T03:40:07.059Z,16.70
2018-01-24T03:41:11.830Z,16.70
2018-01-24T03:42:16.622Z,16.70
2018-01-24T03:43:21.628Z,16.70
2018-01-24T03:44:26.334Z,16.70
2018-01-24T03:45:31.031Z,16.80
2018-01-24T03:46:35.765Z,16.70
2018-01-24T03:47:40.501Z,16.80
2018-01-24T03:48:45.204Z,16.70
2018-01-24T03:49:49.975Z,16.70
2018-01-24T03:50:54.748Z,16.70
2018-01-24T03:51:59.617Z,16.70
2018-01-24T03:53:04.432Z,16.70
2018-01-24T03:54:09.404Z,16.70
2018-01-24T03:55:14.179Z,16.70
2018-01-24T03:56:18.983Z,16.80
2018-01-24T03:57:23.790Z,16.70
2018-01-24T03:58:28.631Z,16.70
2018-01-24T03:59:33.384Z,16.80
2018-01-24T04:00:38.132Z,16.70
2018-01-24T04:01:42.967Z,16.70
2018-01-24T04:02:47.780Z,16.70
2018-01-24T04:03:52.836Z,16.70
2018-01-24T04:04:57.716Z,16.70
2018-01-24T04:06:02.594Z,16.70
2018-01-24T04:07:07.476Z,16.70
2018-01-24T04:08:12.279Z,16.70
2018-01-24T04:09:17.355Z,16.70
2018-01-24T04:10:22.108Z,16.70
2018-01-24T04:11:26.952Z,16.80
2018-01-24T04:12:32.348Z,16.70
2018-01-24T04:13:37.217Z,16.70
2018-01-24T04:14:42.025Z,16.70
2018-01-24T04:15:46.772Z,16.70
2018-01-24T04:16:51.619Z,16.70
2018-01-24T04:17:56.422Z,16.70
2018-01-24T04:19:01.208Z,16.80
2018-01-24T04:20:06.051Z,16.70
2018-01-24T04:21:10.856Z,16.70
2018-01-24T04:22:15.731Z,16.70
2018-01-24T04:23:20.568Z,16.70
2018-01-24T04:24:25.319Z,16.70
2018-01-24T04:25:30.156Z,16.70
2018-01-24T04:26:34.973Z,16.70
2018-01-24T04:27:39.726Z,16.70
2018-01-24T04:28:44.553Z,16.70
2018-01-24T04:29:49.457Z,16.80
2018-01-24T04:30:55.366Z,16.70
2018-01-24T04:32:00.362Z,16.70
2018-01-24T04:33:05.144Z,16.70
2018-01-24T04:34:10.051Z,16.70
2018-01-24T04:35:14.826Z,16.70
2018-01-24T04:36:19.625Z,16.70
2018-01-24T04:37:24.554Z,16.70
2018-01-24T04:38:29.385Z,16.70
2018-01-24T04:39:34.434Z,16.70
2018-01-24T04:40:39.320Z,16.70
2018-01-24T04:41:44.099Z,16.70
2018-01-24T04:42:48.954Z,16.70
2018-01-24T04:43:53.732Z,16.70
2018-01-24T04:44:58.508Z,16.70
2018-01-24T04:46:03.373Z,16.70
2018-01-24T04:47:08.132Z,16.70
2018-01-24T04:48:12.850Z,16.70
2018-01-24T04:49:18.821Z,16.70
2018-01-24T04:50:23.761Z,16.70
2018-01-24T04:51:28.542Z,16.70
2018-01-24T04:52:33.260Z,16.70
2018-01-24T04:53:38.031Z,16.70
2018-01-24T04:54:42.793Z,16.70
2018-01-24T04:55:47.525Z,16.70
2018-01-24T04:56:52.333Z,16.70
2018-01-24T04:57:57.061Z,16.70
2018-01-24T04:59:01.868Z,16.80
2018-01-24T05:00:06.745Z,16.70
2018-01-24T05:01:11.654Z,16.70
2018-01-24T05:02:16.546Z,16.70
2018-01-24T05:03:21.328Z,16.70
2018-01-24T05:04:26.211Z,16.70
2018-01-24T05:05:31.194Z,16.70
2018-01-24T05:06:36.007Z,16.70
2018-01-24T05:07:41.847Z,16.70
2018-01-24T05:08:46.731Z,16.70
2018-01-24T05:09:51.594Z,16.70
2018-01-24T05:10:56.451Z,16.70
2018-01-24T05:12:01.304Z,16.80
2018-01-24T05:13:06.140Z,16.70
2018-01-24T05:14:11.039Z,16.70
2018-01-24T05:15:16.973Z,16.80
2018-01-24T05:16:21.852Z,16.80
2018-01-24T05:17:26.678Z,16.80
2018-01-24T05:18:31.427Z,16.70
2018-01-24T05:19:36.410Z,16.70
2018-01-24T05:20:41.428Z,16.70
2018-01-24T05:21:46.335Z,16.70
2018-01-24T05:22:51.189Z,16.70
2018-01-24T05:23:56.241Z,16.70
2018-01-24T05:25:01.000Z,16.70
2018-01-24T05:26:07.069Z,16.70
2018-01-24T05:27:11.926Z,16.70
2018-01-24T05:28:16.823Z,16.70
2018-01-24T05:29:21.630Z,16.70
2018-01-24T05:30:26.504Z,16.70
2018-01-24T05:31:31.357Z,16.70
2018-01-24T05:32:36.142Z,16.70
2018-01-24T05:33:41.070Z,16.70
2018-01-24T05:34:45.883Z,16.70
2018-01-24T05:35:50.660Z,16.70
2018-01-24T05:36:55.407Z,16.70
2018-01-24T05:38:00.243Z,16.70
2018-01-24T05:39:05.291Z,16.70
2018-01-24T05:40:10.237Z,16.70
2018-01-24T05:41:15.141Z,16.70
2018-01-24T05:42:19.979Z,16.70
2018-01-24T05:43:24.909Z,16.70
2018-01-24T05:44:31.014Z,16.70
2018-01-24T05:45:36.058Z,16.70
2018-01-24T05:46:40.907Z,16.70
2018-01-24T05:47:45.920Z,16.70
2018-01-24T05:48:50.690Z,16.70
2018-01-24T05:49:55.429Z,16.70
2018-01-24T05:51:00.237Z,16.70
2018-01-24T05:52:05.467Z,16.70
2018-01-24T05:53:10.392Z,16.70
2018-01-24T05:54:15.162Z,16.70
2018-01-24T05:55:19.947Z,16.70
2018-01-24T05:56:24.905Z,16.70
2018-01-24T05:57:29.831Z,16.70
2018-01-24T05:58:34.560Z,16.70
2018-01-24T05:59:39.393Z,16.70
2018-01-24T06:00:44.214Z,16.70
2018-01-24T06:01:49.104Z,16.70
2018-01-24T06:02:55.697Z,16.70
2018-01-24T06:04:00.762Z,16.70
2018-01-24T06:05:05.612Z,16.70
2018-01-24T06:06:10.418Z,16.70
2018-01-24T06:07:15.399Z,16.70
2018-01-24T06:08:20.236Z,16.70
2018-01-24T06:09:25.331Z,16.70
2018-01-24T06:10:30.305Z,16.70
2018-01-24T06:11:35.090Z,16.70
2018-01-24T06:12:39.878Z,16.70
2018-01-24T06:13:44.740Z,16.70
2018-01-24T06:14:49.676Z,16.70
2018-01-24T06:15:54.529Z,16.70
2018-01-24T06:16:59.258Z,16.70
2018-01-24T06:18:04.209Z,16.70
2018-01-24T06:19:09.121Z,16.60
2018-01-24T06:20:13.902Z,16.50
2018-01-24T06:21:19.550Z,16.40
2018-01-24T06:22:24.485Z,16.40
2018-01-24T06:23:29.252Z,16.30
2018-01-24T06:24:34.233Z,16.30
2018-01-24T06:25:39.183Z,16.20
2018-01-24T06:26:44.019Z,16.30
2018-01-24T06:27:48.939Z,16.30
2018-01-24T06:28:53.796Z,16.30
2018-01-24T06:30:10.615Z,16.40
2018-01-24T06:31:15.541Z,16.50
2018-01-24T06:32:20.449Z,16.60
2018-01-24T06:33:25.228Z,16.70
2018-01-24T06:34:30.389Z,16.80
2018-01-24T06:35:38.322Z,16.80
2018-01-24T06:36:43.416Z,17.00
2018-01-24T06:37:48.328Z,17.00
2018-01-24T06:38:53.223Z,17.10
2018-01-24T06:39:58.046Z,17.20
2018-01-24T06:41:03.167Z,17.30
2018-01-24T06:42:08.101Z,17.40
2018-01-24T06:43:13.097Z,17.50
2018-01-24T06:44:18.043Z,17.60
2018-01-24T06:45:22.929Z,17.60
2018-01-24T06:46:27.803Z,17.70
2018-01-24T06:48:36.413Z,17.90
2018-01-24T06:49:41.189Z,17.90
2018-01-24T06:50:46.060Z,17.90
2018-01-24T06:51:50.949Z,18.00
2018-01-24T06:52:55.696Z,18.00
2018-01-24T06:54:01.696Z,18.00
2018-01-24T06:55:06.872Z,18.10
2018-01-24T06:56:11.748Z,18.20
2018-01-24T06:57:16.540Z,18.20
2018-01-24T06:58:21.372Z,18.20
2018-01-24T06:59:26.592Z,18.30
2018-01-24T07:00:31.397Z,18.30
2018-01-24T07:01:36.432Z,18.30
2018-01-24T07:02:41.210Z,18.30
2018-01-24T07:03:45.896Z,18.40
2018-01-24T07:04:50.762Z,18.40
2018-01-24T07:05:55.507Z,18.50
2018-01-24T07:07:00.803Z,18.50
2018-01-24T07:08:05.747Z,18.60
2018-01-24T07:09:10.535Z,18.60
2018-01-24T07:10:15.343Z,18.60
2018-01-24T07:11:20.249Z,18.70
2018-01-24T07:12:25.097Z,18.70
2018-01-24T07:13:30.255Z,18.70
2018-01-24T07:14:35.256Z,18.60
2018-01-24T07:15:40.181Z,18.60
2018-01-24T07:16:44.995Z,18.70
2018-01-24T07:17:49.898Z,18.70
2018-01-24T07:18:54.813Z,18.70
2018-01-24T07:19:59.679Z,18.70
2018-01-24T07:21:04.453Z,18.70
2018-01-24T07:22:09.220Z,18.70
2018-01-24T07:23:14.649Z,18.70
2018-01-24T07:24:19.455Z,18.80
2018-01-24T07:25:24.271Z,18.80
2018-01-24T07:26:29.048Z,18.80
2018-01-24T07:27:33.795Z,18.80
2018-01-24T07:28:38.616Z,18.80
2018-01-24T07:29:43.387Z,18.80
2018-01-24T07:30:48.260Z,18.80
2018-01-24T07:31:53.473Z,18.70
2018-01-24T07:32:58.496Z,18.70
2018-01-24T07:34:03.406Z,18.70
2018-01-24T07:35:08.265Z,18.70
2018-01-24T07:36:13.161Z,18.70
2018-01-24T07:37:18.242Z,18.70
2018-01-24T07:38:23.234Z,18.70
2018-01-24T07:39:28.011Z,18.70
2018-01-24T07:40:32.787Z,18.70
2018-01-24T07:41:37.735Z,18.60
2018-01-24T07:42:42.544Z,18.50
2018-01-24T07:43:47.575Z,18.50
2018-01-24T07:44:52.579Z,18.40
2018-01-24T07:45:57.538Z,18.40
2018-01-24T07:47:02.420Z,18.30
2018-01-24T07:48:07.418Z,18.30
2018-01-24T07:49:12.283Z,18.30
2018-01-24T07:50:17.616Z,18.20
2018-01-24T07:51:25.405Z,18.20
2018-01-24T07:52:30.637Z,18.20
2018-01-24T07:53:35.523Z,18.20
2018-01-24T07:54:40.516Z,18.20
2018-01-24T07:55:45.384Z,18.10
2018-01-24T07:56:50.257Z,18.10
2018-01-24T07:57:55.214Z,18.10
2018-01-24T07:58:59.991Z,18.10
2018-01-24T08:00:04.954Z,18.10
2018-01-24T08:01:09.767Z,18.00
2018-01-24T08:02:14.632Z,18.10
2018-01-24T08:03:19.467Z,18.10
2018-01-24T08:04:24.301Z,18.10
2018-01-24T08:05:29.316Z,18.20
2018-01-24T08:06:34.139Z,18.20
2018-01-24T08:07:39.102Z,18.20
2018-01-24T08:08:44.018Z,18.20
2018-01-24T08:09:48.916Z,18.20
2018-01-24T08:10:53.831Z,18.20
2018-01-24T08:11:58.739Z,18.20
2018-01-24T08:13:03.664Z,18.20
2018-01-24T08:14:08.467Z,18.20
2018-01-24T08:15:13.345Z,18.20
2018-01-24T08:16:18.165Z,18.20
2018-01-24T08:17:22.988Z,18.20
2018-01-24T08:18:29.367Z,18.20
2018-01-24T08:19:34.334Z,18.20
2018-01-24T08:20:39.112Z,18.20
2018-01-24T08:21:44.022Z,18.10
2018-01-24T08:22:48.899Z,18.10
2018-01-24T08:23:53.661Z,18.10
2018-01-24T08:24:58.529Z,18.10
2018-01-24T08:26:03.556Z,18.10
2018-01-24T08:27:08.634Z,18.10
2018-01-24T08:28:13.722Z,18.00
2018-01-24T08:29:18.550Z,18.00
2018-01-24T08:30:23.415Z,18.00
2018-01-24T08:31:28.689Z,18.00
2018-01-24T08:32:33.590Z,18.00
2018-01-24T08:33:38.598Z,17.90
2018-01-24T08:34:43.447Z,17.80
2018-01-24T08:35:48.547Z,17.80
2018-01-24T08:36:53.688Z,17.70
2018-01-24T08:37:58.731Z,17.70
2018-01-24T08:39:03.707Z,17.70
2018-01-24T08:40:08.656Z,17.60
2018-01-24T08:41:13.581Z,17.60
2018-01-24T08:42:18.601Z,17.60
2018-01-24T08:43:23.898Z,17.60
2018-01-24T08:44:28.770Z,17.60
2018-01-24T08:45:33.716Z,17.60
2018-01-24T08:46:38.660Z,17.60
2018-01-24T08:47:43.517Z,17.60
2018-01-24T08:48:48.416Z,17.60
2018-01-24T08:49:53.324Z,17.60
2018-01-24T08:50:58.381Z,17.60
2018-01-24T08:52:03.335Z,17.60
2018-01-24T08:53:08.146Z,17.60
2018-01-24T08:54:13.068Z,17.60
2018-01-24T08:55:17.852Z,17.60
2018-01-24T08:56:22.648Z,17.60
2018-01-24T08:57:27.439Z,17.60
2018-01-24T08:58:32.341Z,17.60
2018-01-24T08:59:37.183Z,17.60
2018-01-24T09:00:42.168Z,17.60
2018-01-24T09:01:47.398Z,17.70
2018-01-24T09:02:52.519Z,17.70
2018-01-24T09:03:57.539Z,17.70
2018-01-24T09:05:02.435Z,17.70
2018-01-24T09:06:07.271Z,17.70
2018-01-24T09:07:12.188Z,17.70
2018-01-24T09:08:17.172Z,17.80
2018-01-24T09:09:22.280Z,17.70
2018-01-24T09:10:27.247Z,17.80
2018-01-24T09:11:32.126Z,17.80
2018-01-24T09:12:37.132Z,17.80
2018-01-24T09:13:42.132Z,17.80
2018-01-24T09:14:46.990Z,17.80
2018-01-24T09:15:51.755Z,17.80
2018-01-24T09:16:56.791Z,17.80
2018-01-24T09:18:01.698Z,17.80
2018-01-24T09:19:06.741Z,17.80
2018-01-24T09:20:11.957Z,17.70
2018-01-24T09:21:16.925Z,17.70
2018-01-24T09:22:21.715Z,17.70
2018-01-24T09:23:26.671Z,17.70
2018-01-24T09:24:31.519Z,17.70
2018-01-24T09:25:36.464Z,17.70
2018-01-24T09:26:41.377Z,17.70
2018-01-24T09:27:46.546Z,17.70
2018-01-24T09:28:51.474Z,17.70
2018-01-24T09:29:56.412Z,17.70
2018-01-24T09:31:01.338Z,17.70
2018-01-24T09:32:06.114Z,17.60
2018-01-24T09:33:11.819Z,17.60
2018-01-24T09:34:16.955Z,17.70
2018-01-24T09:35:21.826Z,17.60
2018-01-24T09:36:26.631Z,17.60
2018-01-24T09:37:31.632Z,17.60
2018-01-24T09:38:36.528Z,17.60
2018-01-24T09:39:41.337Z,17.70
2018-01-24T09:40:46.134Z,17.70
2018-01-24T09:41:50.931Z,17.70
2018-01-24T09:42:55.741Z,17.70
2018-01-24T09:44:00.610Z,17.70
2018-01-24T09:45:05.365Z,17.70
2018-01-24T09:46:10.160Z,17.70
2018-01-24T09:47:15.164Z,17.70
2018-01-24T09:48:20.142Z,17.70
2018-01-24T09:49:25.253Z,17.70
2018-01-24T09:50:30.192Z,17.70
2018-01-24T09:51:35.104Z,17.70
2018-01-24T09:52:40.108Z,17.70
2018-01-24T09:53:47.853Z,17.70
2018-01-24T09:54:52.586Z,17.70
2018-01-24T09:55:58.608Z,17.70
2018-01-24T09:57:03.439Z,17.70
2018-01-24T09:58:08.325Z,17.70
2018-01-24T09:59:13.213Z,17.70
2018-01-24T10:00:18.220Z,17.70
2018-01-24T10:01:23.039Z,17.70
2018-01-24T10:02:27.842Z,17.70
2018-01-24T10:03:32.837Z,17.70
2018-01-24T10:04:37.848Z,17.70
2018-01-24T10:05:42.578Z,17.70
2018-01-24T10:06:48.072Z,17.70
2018-01-24T10:07:52.994Z,17.70
2018-01-24T10:08:57.903Z,17.80
2018-01-24T10:10:02.810Z,17.80
2018-01-24T10:11:07.864Z,17.80
2018-01-24T10:12:13.078Z,17.80
2018-01-24T10:13:18.386Z,17.80
2018-01-24T10:14:24.907Z,17.80
2018-01-24T10:15:30.304Z,17.80
2018-01-24T10:16:35.291Z,17.90
2018-01-24T10:17:40.217Z,17.90
2018-01-24T10:18:45.045Z,17.90
2018-01-24T10:19:49.822Z,17.90
2018-01-24T10:20:55.083Z,17.90
2018-01-24T10:22:00.400Z,18.00
2018-01-24T10:23:05.232Z,18.00
2018-01-24T10:24:10.174Z,18.00
2018-01-24T10:25:15.003Z,18.00
2018-01-24T10:26:19.939Z,18.00
2018-01-24T10:27:25.289Z,18.00
2018-01-24T10:28:30.224Z,18.00
2018-01-24T10:29:35.735Z,18.00
2018-01-24T10:30:40.890Z,18.00
2018-01-24T10:31:45.991Z,18.10
2018-01-24T10:32:51.204Z,18.10
2018-01-24T10:33:56.330Z,18.10
2018-01-24T10:35:01.501Z,18.10
2018-01-24T10:36:06.562Z,18.20
2018-01-24T10:37:11.472Z,18.10
2018-01-24T10:38:16.372Z,18.20
2018-01-24T10:39:21.740Z,18.20
2018-01-24T10:40:26.663Z,18.20
2018-01-24T10:41:31.805Z,18.20
2018-01-24T10:42:36.799Z,18.20
2018-01-24T10:43:41.661Z,18.10
2018-01-24T10:44:46.572Z,18.10
2018-01-24T10:45:51.451Z,18.10
2018-01-24T10:46:56.328Z,18.00
2018-01-24T10:48:01.147Z,17.90
2018-01-24T10:49:05.971Z,17.80
2018-01-24T10:50:10.862Z,17.60
2018-01-24T10:51:15.753Z,17.50
2018-01-24T10:52:21.078Z,17.50
2018-01-24T10:53:26.431Z,17.40
2018-01-24T10:54:31.176Z,17.40
2018-01-24T10:55:36.041Z,17.50
2018-01-24T10:56:42.382Z,17.50
2018-01-24T10:57:47.599Z,17.60
2018-01-24T10:58:52.397Z,17.60
2018-01-24T10:59:57.218Z,17.60
2018-01-24T11:01:02.039Z,17.60
2018-01-24T11:02:06.924Z,17.60
2018-01-24T11:03:11.657Z,17.60
2018-01-24T11:04:16.691Z,17.70
2018-01-24T11:05:21.425Z,17.70
2018-01-24T11:06:26.230Z,17.70
2018-01-24T11:07:31.022Z,17.70
2018-01-24T11:08:35.742Z,17.70
2018-01-24T11:09:40.559Z,17.70
2018-01-24T11:10:45.397Z,17.70
2018-01-24T11:11:50.163Z,17.80
2018-01-24T11:12:55.090Z,17.80
2018-01-24T11:13:59.875Z,17.80
2018-01-24T11:15:04.613Z,17.80
2018-01-24T11:16:09.370Z,17.80
2018-01-24T11:17:14.300Z,17.70
2018-01-24T11:18:19.126Z,17.80
2018-01-24T11:19:24.113Z,17.70
2018-01-24T11:20:28.903Z,17.70
2018-01-24T11:21:33.691Z,17.70
2018-01-24T11:22:38.534Z,17.70
2018-01-24T11:23:43.634Z,17.70
2018-01-24T11:24:48.531Z,17.70
2018-01-24T11:25:53.314Z,17.70
2018-01-24T11:26:58.103Z,17.70
2018-01-24T11:28:03.040Z,17.70
2018-01-24T11:29:08.022Z,17.70
2018-01-24T11:30:12.829Z,17.70
2018-01-24T11:31:17.810Z,17.70
2018-01-24T11:32:22.748Z,17.70
2018-01-24T11:33:27.620Z,17.70
2018-01-24T11:34:32.571Z,17.70
2018-01-24T11:35:37.356Z,17.70
2018-01-24T11:36:42.375Z,17.60
2018-01-24T11:37:47.147Z,17.60
2018-01-24T11:38:51.927Z,17.60
2018-01-24T11:39:56.729Z,17.60
2018-01-24T11:41:01.640Z,17.60
2018-01-24T11:42:06.484Z,17.60
2018-01-24T11:43:11.354Z,17.60
2018-01-24T11:44:16.179Z,17.60
2018-01-24T11:45:20.908Z,17.60
2018-01-24T11:46:25.717Z,17.60
2018-01-24T11:47:30.470Z,17.60
2018-01-24T11:48:35.375Z,17.60
2018-01-24T11:49:52.133Z,17.60
2018-01-24T11:50:56.999Z,17.50
2018-01-24T11:52:01.821Z,17.50
2018-01-24T11:53:06.572Z,17.50
2018-01-24T11:54:11.375Z,17.50
2018-01-24T11:55:16.102Z,17.50
2018-01-24T11:56:20.986Z,17.50
2018-01-24T11:57:25.846Z,17.50
2018-01-24T11:58:30.721Z,17.50
2018-01-24T11:59:35.453Z,17.50
2018-01-24T12:00:40.348Z,17.50
2018-01-24T12:01:45.328Z,17.50
2018-01-24T12:02:50.192Z,17.50
2018-01-24T12:03:54.982Z,17.50
2018-01-24T12:04:59.874Z,17.50
2018-01-24T12:06:04.707Z,17.50
2018-01-24T12:07:09.487Z,17.50
2018-01-24T12:08:14.247Z,17.50
2018-01-24T12:09:19.073Z,17.50
2018-01-24T12:10:23.916Z,17.50
2018-01-24T12:11:28.940Z,17.50
2018-01-24T12:12:33.807Z,17.40
2018-01-24T12:13:38.698Z,17.40
2018-01-24T12:14:43.503Z,17.40
2018-01-24T12:15:48.329Z,17.40
2018-01-24T12:16:53.081Z,17.40
2018-01-24T12:17:57.932Z,17.40
2018-01-24T12:19:02.727Z,17.40
2018-01-24T12:20:07.557Z,17.40
2018-01-24T12:21:12.414Z,17.40
2018-01-24T12:22:17.226Z,17.40
2018-01-24T12:23:22.079Z,17.40
2018-01-24T12:24:26.871Z,17.40
2018-01-24T12:25:31.616Z,17.40
2018-01-24T12:26:36.361Z,17.40
2018-01-24T12:27:41.285Z,17.40
2018-01-24T12:28:46.110Z,17.40
2018-01-24T12:29:51.031Z,17.40
2018-01-24T12:30:55.863Z,17.40
2018-01-24T12:32:00.782Z,17.40
2018-01-24T12:33:05.517Z,17.40
2018-01-24T12:34:10.419Z,17.30
2018-01-24T12:35:15.186Z,17.40
2018-01-24T12:36:19.983Z,17.30
2018-01-24T12:37:24.721Z,17.30
2018-01-24T12:38:29.514Z,17.30
2018-01-24T12:39:34.307Z,17.30
2018-01-24T12:40:39.225Z,17.30
2018-01-24T12:41:44.087Z,17.30
2018-01-24T12:42:48.993Z,17.30
2018-01-24T12:43:53.876Z,17.30
2018-01-24T12:44:58.930Z,17.30
2018-01-24T12:46:03.995Z,17.30
2018-01-24T12:47:09.321Z,17.30
2018-01-24T12:48:14.356Z,17.30
2018-01-24T12:49:19.256Z,17.30
2018-01-24T12:50:25.013Z,17.30
2018-01-24T12:51:30.016Z,17.30
2018-01-24T12:52:35.079Z,17.30
2018-01-24T12:53:39.913Z,17.30
2018-01-24T12:54:44.723Z,17.30
2018-01-24T12:55:49.783Z,17.30
2018-01-24T12:56:54.773Z,17.30
2018-01-24T12:57:59.690Z,17.30
2018-01-24T12:59:04.591Z,17.30
2018-01-24T13:00:09.585Z,17.30
2018-01-24T13:01:14.485Z,17.30
2018-01-24T13:02:19.469Z,17.30
2018-01-24T13:03:24.427Z,17.30
2018-01-24T13:04:29.491Z,17.20
2018-01-24T13:05:34.255Z,17.20
2018-01-24T13:06:39.273Z,17.20
2018-01-24T13:07:44.169Z,17.30
2018-01-24T13:08:49.708Z,17.30
2018-01-24T13:09:54.551Z,17.30
2018-01-24T13:10:59.382Z,17.30
2018-01-24T13:12:04.411Z,17.20
2018-01-24T13:13:09.371Z,17.20
2018-01-24T13:14:14.415Z,17.20
2018-01-24T13:15:19.370Z,17.20
2018-01-24T13:16:24.232Z,17.20
2018-01-24T13:17:29.102Z,17.20
2018-01-24T13:18:33.970Z,17.20
2018-01-24T13:19:38.683Z,17.20
2018-01-24T13:20:43.432Z,17.20
2018-01-24T13:21:48.596Z,17.20
2018-01-24T13:22:53.480Z,17.20
2018-01-24T13:23:58.506Z,17.30
2018-01-24T13:25:03.324Z,17.30
2018-01-24T13:26:08.176Z,17.30
2018-01-24T13:27:13.138Z,17.30
2018-01-24T13:28:18.094Z,17.30
2018-01-24T13:29:22.952Z,17.30
2018-01-24T13:30:28.014Z,17.30
2018-01-24T13:31:32.837Z,17.30
2018-01-24T13:32:37.591Z,17.30
2018-01-24T13:33:42.511Z,17.30
2018-01-24T13:34:47.386Z,17.30
2018-01-24T13:35:52.292Z,17.30
2018-01-24T13:36:57.150Z,17.30
2018-01-24T13:38:02.186Z,17.20
2018-01-24T13:39:07.143Z,17.20
2018-01-24T13:40:12.011Z,17.20
2018-01-24T13:41:16.918Z,17.20
2018-01-24T13:42:21.869Z,17.20
2018-01-24T13:43:26.676Z,17.20
2018-01-24T13:44:31.639Z,17.20
2018-01-24T13:45:37.077Z,17.10
2018-01-24T13:46:41.865Z,17.10
2018-01-24T13:47:46.804Z,17.10
2018-01-24T13:48:51.895Z,17.20
2018-01-24T13:49:56.846Z,17.10
2018-01-24T13:51:01.762Z,17.10
2018-01-24T13:52:06.521Z,17.20
2018-01-24T13:53:11.416Z,17.20
2018-01-24T13:54:16.325Z,17.20
2018-01-24T13:55:21.227Z,17.20
2018-01-24T13:56:25.990Z,17.20
2018-01-24T13:57:30.885Z,17.20